Time;durP1;ratioP1;P1;durP2;ratioP2;P2;SDS_P1;SDS_P2;PMS_P1;PMS_P2;Temp;Humidity;BMP_temperature;BMP_pressure;BME280_temperature;BME280_humidity;BME280_pressure;Samples;Min_cycle;Max_cycle;Signal;HPM_P1;HPM_P2
2023/01/24 00:00:40;;;;;;;36.60;15.77;;;-0.50;99.90;;;;;;5091523;28;20108;-84
2023/01/24 00:03:11;;;;;;;36.22;15.77;;;-0.50;99.90;;;;;;5069998;28;20024;-84
2023/01/24 00:05:38;;;;;;;41.10;15.93;;;-0.50;99.90;;;;;;5092310;28;20070;-84
2023/01/24 00:08:04;;;;;;;33.78;15.68;;;-0.50;99.90;;;;;;5091518;28;20107;-85
2023/01/24 00:10:31;;;;;;;34.30;15.75;;;-0.50;99.90;;;;;;5075132;28;20543;-84
2023/01/24 00:12:57;;;;;;;36.90;15.57;;;-0.40;99.90;;;;;;5074653;28;20360;-84
2023/01/24 00:15:23;;;;;;;36.67;15.45;;;-0.50;99.90;;;;;;5091221;28;20064;-84
2023/01/24 00:17:49;;;;;;;34.05;17.40;;;-0.50;99.90;;;;;;5091204;28;20047;-84
2023/01/24 00:20:15;;;;;;;37.17;16.77;;;-0.50;99.90;;;;;;5074494;28;20778;-84
2023/01/24 00:22:41;;;;;;;35.05;16.02;;;-0.50;99.90;;;;;;5092605;28;20532;-84
2023/01/24 00:25:07;;;;;;;41.00;17.83;;;-0.50;99.90;;;;;;5091483;28;20035;-84
2023/01/24 00:27:42;;;;;;;33.13;14.88;;;-0.50;99.90;;;;;;5074526;28;20024;-85
2023/01/24 00:30:10;;;;;;;32.42;14.70;;;-0.50;99.90;;;;;;5091366;28;20024;-84
2023/01/24 00:32:35;;;;;;;33.50;15.70;;;-0.50;99.90;;;;;;5070216;28;20392;-84
2023/01/24 00:35:01;;;;;;;35.08;16.48;;;-0.50;99.90;;;;;;5090893;28;20062;-84
2023/01/24 00:37:27;;;;;;;38.92;18.05;;;-0.50;99.90;;;;;;5074717;28;20028;-84
2023/01/24 00:39:53;;;;;;;42.15;18.05;;;-0.50;99.90;;;;;;5074370;28;20036;-85
2023/01/24 00:42:19;;;;;;;34.83;15.57;;;-0.50;99.90;;;;;;5095322;28;20540;-84
2023/01/24 00:44:44;;;;;;;44.08;17.75;;;-0.50;99.90;;;;;;5078587;28;20483;-84
2023/01/24 00:47:10;;;;;;;39.60;16.27;;;-0.50;99.90;;;;;;5077971;28;20035;-84
2023/01/24 00:49:36;;;;;;;39.33;17.17;;;-0.50;99.90;;;;;;5094958;28;20024;-84
2023/01/24 00:52:02;;;;;;;38.17;16.98;;;-0.50;99.90;;;;;;5089490;28;20036;-84
2023/01/24 00:55:01;;;;;;;41.70;17.70;;;-0.60;99.90;;;;;;5071686;28;20463;-84
2023/01/24 00:57:27;;;;;;;39.42;16.88;;;-0.60;99.90;;;;;;5089685;28;20494;-84
2023/01/24 00:59:54;;;;;;;37.47;18.10;;;-0.50;99.90;;;;;;5095349;28;20063;-84
2023/01/24 01:02:19;;;;;;;39.10;15.73;;;-0.60;99.90;;;;;;5078432;28;20113;-85
2023/01/24 01:04:46;;;;;;;37.42;17.52;;;-0.60;99.90;;;;;;5078435;28;20028;-85
2023/01/24 01:07:11;;;;;;;33.65;15.80;;;-0.50;99.90;;;;;;5078530;28;20032;-84
2023/01/24 01:09:37;;;;;;;35.95;16.10;;;-0.50;99.90;;;;;;5077870;28;20024;-84
2023/01/24 01:12:03;;;;;;;33.47;16.20;;;-0.50;99.90;;;;;;5094928;28;20151;-84
2023/01/24 01:14:28;;;;;;;34.38;15.50;;;-0.50;99.90;;;;;;5078152;28;20436;-85
2023/01/24 01:16:54;;;;;;;33.55;16.50;;;-0.50;99.90;;;;;;5094784;28;20032;-84
2023/01/24 01:19:21;;;;;;;36.72;17.02;;;-0.50;99.90;;;;;;5077866;28;20110;-84
2023/01/24 01:21:54;;;;;;;39.95;16.23;;;-0.50;99.90;;;;;;5077458;28;20031;-83
2023/01/24 01:24:48;;;;;;;34.10;16.05;;;-0.50;99.90;;;;;;5077761;28;20115;-84
2023/01/24 01:27:14;;;;;;;43.00;17.17;;;-0.50;99.90;;;;;;5077889;28;20035;-84
2023/01/24 01:29:39;;;;;;;39.90;16.70;;;-0.50;99.90;;;;;;5077912;28;20032;-84
2023/01/24 01:32:05;;;;;;;36.35;16.58;;;-0.50;99.90;;;;;;5077292;28;20038;-84
2023/01/24 01:34:31;;;;;;;37.90;16.30;;;-0.50;99.90;;;;;;5077427;28;20055;-84
2023/01/24 01:36:57;;;;;;;40.75;16.58;;;-0.50;99.90;;;;;;5077294;28;20692;-84
2023/01/24 01:39:22;;;;;;;40.33;17.98;;;-0.60;99.90;;;;;;5077459;28;20035;-84
2023/01/24 01:41:48;;;;;;;37.60;16.75;;;-0.50;99.90;;;;;;5077352;28;20034;-85
2023/01/24 01:44:38;;;;;;;35.92;16.25;;;-0.60;99.90;;;;;;5077137;28;20027;-84
2023/01/24 01:47:05;;;;;;;42.40;16.63;;;-0.60;99.90;;;;;;5077638;28;20028;-84
2023/01/24 01:49:31;;;;;;;38.17;16.52;;;-0.60;99.90;;;;;;5078009;28;20032;-84
2023/01/24 01:52:02;;;;;;;37.70;16.67;;;-0.60;99.90;;;;;;5077648;28;20528;-84
2023/01/24 01:54:31;;;;;;;37.60;16.25;;;-0.60;99.90;;;;;;5077303;28;20036;-84
2023/01/24 01:57:03;;;;;;;44.28;16.45;;;-0.60;99.90;;;;;;5076792;28;20036;-84
2023/01/24 01:59:33;;;;;;;40.17;17.80;;;-0.50;99.90;;;;;;5076932;28;20047;-84
2023/01/24 02:02:01;;;;;;;33.83;15.90;;;-0.60;99.90;;;;;;5077298;28;20452;-84
2023/01/24 02:04:39;;;;;;;36.03;15.90;;;-0.50;99.90;;;;;;5094566;28;20043;-84
2023/01/24 02:07:20;;;;;;;37.53;17.50;;;-0.50;99.90;;;;;;5076440;28;20020;-84
2023/01/24 02:09:49;;;;;;;36.67;15.88;;;-0.50;99.90;;;;;;5076732;28;20032;-84
2023/01/24 02:12:30;;;;;;;39.28;16.45;;;-0.60;99.90;;;;;;5094268;28;20105;-84
2023/01/24 02:17:51;;;;;;;41.60;16.45;;;-0.60;99.90;;;;;;5094138;28;20028;-84
2023/01/24 02:20:39;;;;;;;35.95;15.93;;;-0.50;99.90;;;;;;5077262;28;20073;-84
2023/01/24 02:23:08;;;;;;;43.05;17.00;;;-0.60;99.90;;;;;;5074891;28;20472;-83
2023/01/24 02:26:02;;;;;;;35.03;16.35;;;-0.60;99.90;;;;;;5076781;28;20043;-84
2023/01/24 02:28:27;;;;;;;35.50;14.70;;;-0.60;99.90;;;;;;5093806;28;20032;-84
2023/01/24 02:31:01;;;;;;;41.08;16.48;;;-0.60;99.90;;;;;;5076739;28;20032;-84
2023/01/24 02:33:27;;;;;;;39.97;17.02;;;-0.60;99.90;;;;;;5093289;28;20036;-85
2023/01/24 02:36:14;;;;;;;40.13;18.05;;;-0.50;99.90;;;;;;5076248;28;20111;-85
2023/01/24 02:38:44;;;;;;;42.35;17.48;;;-0.60;99.90;;;;;;5092989;28;20032;-84
2023/01/24 02:41:11;;;;;;;42.45;17.30;;;-0.60;99.90;;;;;;5076095;28;20074;-84
2023/01/24 02:43:42;;;;;;;43.58;19.27;;;-0.60;99.90;;;;;;5076167;28;20021;-84
2023/01/24 02:46:08;;;;;;;38.20;17.95;;;-0.60;99.90;;;;;;5076436;28;20036;-84
2023/01/24 02:48:33;;;;;;;43.80;17.73;;;-0.60;99.90;;;;;;5076192;28;20028;-84
2023/01/24 02:53:43;;;;;;;37.55;16.45;;;-0.60;99.90;;;;;;5091529;28;20131;-84
2023/01/24 02:58:54;;;;;;;43.72;17.27;;;-0.60;99.90;;;;;;5089466;28;20035;-84
2023/01/24 03:01:21;;;;;;;38.85;16.65;;;-0.60;99.90;;;;;;5075590;28;20459;-85
2023/01/24 03:03:52;;;;;;;44.42;18.10;;;-0.60;99.90;;;;;;5076225;28;20433;-84
2023/01/24 03:06:19;;;;;;;40.10;16.38;;;-0.50;99.90;;;;;;5076114;28;20024;-84
2023/01/24 03:08:46;;;;;;;42.60;16.60;;;-0.50;99.90;;;;;;5076360;28;20050;-84
2023/01/24 03:11:19;;;;;;;51.97;21.98;;;-0.50;99.90;;;;;;5092349;28;20471;-84
2023/01/24 03:35:54;;;;;;;38.72;16.90;;;-0.50;99.90;;;;;;5091924;28;20016;-84
2023/01/24 03:41:08;;;;;;;44.67;19.92;;;-0.50;99.90;;;;;;5090640;28;20439;-84
2023/01/24 03:43:35;;;;;;;42.72;18.83;;;-0.50;99.90;;;;;;5074434;28;20024;-84
2023/01/24 03:46:01;;;;;;;41.00;16.80;;;-0.50;99.90;;;;;;5075079;28;20077;-84
2023/01/24 03:48:38;;;;;;;43.10;16.52;;;-0.50;99.90;;;;;;5076772;28;20031;-85
2023/01/24 03:53:52;;;;;;;40.67;18.85;;;-0.50;99.90;;;;;;5091419;28;20658;-84
2023/01/24 03:56:23;;;;;;;;;;;-0.50;99.90;;;;;;5092346;28;20558;-84
2023/01/24 03:58:55;;;;;;;51.97;19.48;;;-0.50;99.90;;;;;;5106375;27;20588;-84
2023/01/24 04:01:26;;;;;;;42.72;18.02;;;-0.50;99.90;;;;;;5091445;28;20028;-84
2023/01/24 04:04:07;;;;;;;42.10;18.10;;;-0.50;99.90;;;;;;5077132;28;20384;-84
2023/01/24 04:06:33;;;;;;;38.80;18.02;;;-0.50;99.90;;;;;;5074916;28;20055;-84
2023/01/24 04:09:01;;;;;;;43.42;19.00;;;-0.50;99.90;;;;;;5075020;28;20498;-84
2023/01/24 04:11:28;;;;;;;42.30;17.73;;;-0.50;99.90;;;;;;5074889;28;20081;-84
2023/01/24 04:14:02;;;;;;;43.38;19.63;;;-0.50;99.90;;;;;;5076091;28;20024;-84
2023/01/24 04:16:28;;;;;;;47.70;20.50;;;-0.50;99.90;;;;;;5073990;28;20031;-84
2023/01/24 04:19:05;;;;;;;45.13;18.88;;;-0.50;99.90;;;;;;5076524;28;20028;-84
2023/01/24 04:21:31;;;;;;;46.90;20.27;;;-0.50;99.90;;;;;;5074635;28;20055;-84
2023/01/24 04:23:57;;;;;;;49.22;20.98;;;-0.50;99.90;;;;;;5091648;28;20054;-84
2023/01/24 04:26:23;;;;;;;48.20;20.15;;;-0.50;99.90;;;;;;5074091;28;20020;-84
2023/01/24 04:28:51;;;;;;;40.90;18.77;;;-0.50;99.90;;;;;;5091223;28;20609;-84
2023/01/24 04:31:17;;;;;;;45.90;19.65;;;-0.50;99.90;;;;;;5073271;28;20056;-84
2023/01/24 04:34:09;;;;;;;45.08;20.15;;;-0.50;99.90;;;;;;5077646;28;20028;-85
2023/01/24 04:36:37;;;;;;;39.67;18.25;;;-0.50;99.90;;;;;;5074728;28;20085;-84
2023/01/24 04:39:04;;;;;;;43.55;20.60;;;-0.50;99.90;;;;;;5074379;28;20060;-84
2023/01/24 04:41:36;;;;;;;46.72;19.80;;;-0.40;99.90;;;;;;5091401;28;20484;-85
2023/01/24 04:44:02;;;;;;;47.50;19.13;;;-0.50;99.90;;;;;;5074476;28;20070;-83
2023/01/24 04:46:28;;;;;;;47.35;20.52;;;-0.40;99.90;;;;;;5091336;28;20851;-84
2023/01/24 04:48:55;;;;;;;50.65;21.42;;;-0.50;99.90;;;;;;5074511;28;20036;-84
2023/01/24 04:51:28;;;;;;;46.15;19.88;;;-0.40;99.90;;;;;;5075460;28;20476;-84
2023/01/24 04:53:54;;;;;;;49.90;20.67;;;-0.40;99.90;;;;;;5074757;28;20035;-84
2023/01/24 04:56:24;;;;;;;47.83;20.65;;;-0.40;99.90;;;;;;5074676;28;20497;-84
2023/01/24 04:58:50;;;;;;;50.95;21.58;;;-0.40;99.90;;;;;;5073782;28;20028;-84
2023/01/24 05:01:17;;;;;;;45.25;19.13;;;-0.50;99.90;;;;;;5073722;28;20077;-85
2023/01/24 05:04:04;;;;;;;51.47;21.42;;;-0.50;99.90;;;;;;5090573;28;20620;-84
2023/01/24 05:06:32;;;;;;;49.05;20.23;;;-0.40;99.90;;;;;;5090442;28;20361;-84
2023/01/24 05:08:59;;;;;;;49.13;20.42;;;-0.40;99.90;;;;;;5074112;28;20024;-84
2023/01/24 05:11:32;;;;;;;52.75;22.40;;;-0.40;99.90;;;;;;5074954;28;20032;-84
2023/01/24 05:14:02;;;;;;;48.08;21.00;;;-0.40;99.90;;;;;;5074489;28;20032;-84
2023/01/24 05:16:28;;;;;;;48.78;20.75;;;-0.40;99.90;;;;;;5074307;28;20039;-85
2023/01/24 05:18:54;;;;;;;47.88;19.42;;;-0.40;99.90;;;;;;5073526;28;20472;-84
2023/01/24 05:21:21;;;;;;;47.13;20.23;;;-0.40;99.90;;;;;;5073688;28;20024;-84
2023/01/24 05:23:51;;;;;;;51.38;21.10;;;-0.40;99.90;;;;;;5073692;28;20035;-84
2023/01/24 05:26:21;;;;;;;54.63;23.25;;;-0.40;99.90;;;;;;5074320;28;20024;-85
2023/01/24 05:28:48;;;;;;;48.95;20.80;;;-0.40;99.90;;;;;;5094207;28;20542;-84
2023/01/24 05:31:15;;;;;;;45.80;20.40;;;-0.40;99.90;;;;;;5075014;28;20023;-84
2023/01/24 05:33:41;;;;;;;47.63;19.98;;;-0.40;99.90;;;;;;5077797;28;20035;-84
2023/01/24 05:36:13;;;;;;;45.45;19.42;;;-0.40;99.90;;;;;;5094483;28;20032;-84
2023/01/24 05:38:41;;;;;;;51.78;21.25;;;-0.40;99.90;;;;;;5078079;28;20031;-84
2023/01/24 05:41:09;;;;;;;42.75;19.35;;;-0.40;99.90;;;;;;5077514;28;20483;-84
2023/01/24 05:44:25;;;;;;;54.55;22.17;;;-0.40;99.90;;;;;;5077448;28;20032;-84
2023/01/24 05:46:51;;;;;;;43.70;19.60;;;-0.40;99.90;;;;;;5077955;28;20027;-84
2023/01/24 05:49:25;;;;;;;51.05;21.30;;;-0.40;99.90;;;;;;5078234;28;20110;-84
2023/01/24 05:51:50;;;;;;;52.90;21.02;;;-0.40;99.90;;;;;;5076951;28;20115;-84
2023/01/24 05:54:29;;;;;;;48.80;20.02;;;-0.30;99.90;;;;;;5086291;28;20059;-84
2023/01/24 05:57:00;;;;;;;;;;;-0.30;99.90;;;;;;5078440;28;20547;-84
2023/01/24 05:59:33;;;;;;;48.40;19.13;;;-0.30;99.90;;;;;;5093963;28;19912;-84
2023/01/24 06:01:59;;;;;;;51.47;21.40;;;-0.30;99.90;;;;;;5093886;28;20026;-84
2023/01/24 06:04:24;;;;;;;44.58;20.75;;;-0.30;99.90;;;;;;5076639;28;20413;-84
2023/01/24 06:06:50;;;;;;;50.08;20.63;;;-0.30;99.90;;;;;;5077044;28;20039;-84
2023/01/24 06:09:16;;;;;;;53.50;23.13;;;-0.30;99.90;;;;;;5077032;28;20044;-84
2023/01/24 06:11:43;;;;;;;47.97;19.92;;;-0.30;99.90;;;;;;5076839;28;20032;-84
2023/01/24 06:14:14;;;;;;;50.22;21.25;;;-0.30;99.90;;;;;;5077588;28;20785;-84
2023/01/24 06:16:44;;;;;;;41.42;19.60;;;-0.30;99.90;;;;;;5093420;28;20032;-84
2023/01/24 06:19:13;;;;;;;53.17;20.95;;;-0.30;99.90;;;;;;5093344;28;20123;-84
2023/01/24 06:21:59;;;;;;;49.67;21.50;;;-0.30;99.90;;;;;;5076718;28;20396;-84
2023/01/24 06:24:28;;;;;;;51.20;21.02;;;-0.30;99.90;;;;;;5076742;28;20063;-84
2023/01/24 06:27:01;;;;;;;45.30;19.85;;;-0.30;99.90;;;;;;5093214;28;20028;-84
2023/01/24 06:29:27;;;;;;;42.22;18.58;;;-0.30;99.90;;;;;;5076004;28;20085;-84
2023/01/24 06:32:01;;;;;;;44.78;19.98;;;-0.30;99.90;;;;;;5076488;28;20028;-84
2023/01/24 06:34:38;;;;;;;47.83;19.90;;;-0.30;99.90;;;;;;5065144;28;20123;-84
2023/01/24 06:37:21;;;;;;;48.42;20.33;;;-0.30;99.90;;;;;;5093189;28;20031;-84
2023/01/24 06:39:52;;;;;;;44.60;19.10;;;-0.30;99.90;;;;;;5075483;28;20028;-84
2023/01/24 06:42:18;;;;;;;;;;;-0.30;99.90;;;;;;5076947;28;20031;-84
2023/01/24 06:44:45;;;;;;;43.28;18.42;;;-0.30;99.90;;;;;;5093656;28;19953;-84
2023/01/24 06:47:11;;;;;;;47.15;19.90;;;-0.30;99.90;;;;;;5076369;28;20061;-84
2023/01/24 06:49:38;;;;;;;45.33;21.42;;;-0.30;99.90;;;;;;5076551;28;20028;-84
2023/01/24 06:52:04;;;;;;;44.95;19.70;;;-0.30;99.90;;;;;;5093409;28;20387;-84
2023/01/24 06:54:30;;;;;;;46.75;20.98;;;-0.30;99.90;;;;;;5076227;28;20032;-84
2023/01/24 06:56:55;;;;;;;52.92;21.15;;;-0.30;99.90;;;;;;5092326;28;20437;-84
2023/01/24 06:59:24;;;;;;;48.65;19.75;;;-0.30;99.90;;;;;;5092369;28;20070;-84
2023/01/24 07:01:49;;;;;;;46.40;21.33;;;-0.30;99.90;;;;;;5075919;28;20028;-84
2023/01/24 07:04:15;;;;;;;49.35;20.33;;;-0.30;99.90;;;;;;5075609;28;20637;-85
2023/01/24 07:06:41;;;;;;;50.42;20.38;;;-0.30;99.90;;;;;;5075182;28;20711;-85
2023/01/24 07:09:08;;;;;;;50.92;22.13;;;-0.30;99.90;;;;;;5074626;28;20089;-85
2023/01/24 07:11:34;;;;;;;48.72;20.38;;;-0.20;99.90;;;;;;5076019;28;20055;-86
2023/01/24 07:13:59;;;;;;;39.75;17.23;;;-0.20;99.90;;;;;;5075941;28;20032;-85
2023/01/24 07:16:25;;;;;;;47.70;20.17;;;-0.30;99.90;;;;;;5075361;28;20470;-86
2023/01/24 07:18:51;;;;;;;43.88;19.50;;;-0.30;99.90;;;;;;5093813;28;20057;-85
2023/01/24 07:21:17;;;;;;;43.28;18.98;;;-0.20;99.90;;;;;;5075415;28;20042;-86
2023/01/24 07:23:45;;;;;;;45.90;18.67;;;-0.20;99.90;;;;;;5092278;28;20051;-85
2023/01/24 07:26:11;;;;;;;48.83;20.45;;;-0.20;99.90;;;;;;5075691;28;20024;-85
2023/01/24 07:28:38;;;;;;;50.42;21.38;;;-0.20;99.90;;;;;;5093226;28;20162;-85
2023/01/24 07:31:53;;;;;;;46.38;18.88;;;-0.20;99.90;;;;;;5075412;28;20399;-86
2023/01/24 07:34:19;;;;;;;43.08;18.80;;;-0.20;99.90;;;;;;5090990;28;20028;-85
2023/01/24 07:36:46;;;;;;;47.20;20.20;;;-0.20;99.90;;;;;;5075632;28;20445;-86
2023/01/24 07:39:11;;;;;;;50.03;20.23;;;-0.20;99.90;;;;;;5075504;28;20123;-86
2023/01/24 07:41:38;;;;;;;47.75;20.50;;;-0.10;99.90;;;;;;5075290;28;20036;-86
2023/01/24 07:44:06;;;;;;;54.17;21.40;;;-0.10;99.90;;;;;;5072104;28;20020;-86
2023/01/24 07:46:33;;;;;;;54.03;20.65;;;-0.10;99.90;;;;;;5076288;28;20116;-85
2023/01/24 07:49:02;;;;;;;44.03;20.20;;;-0.10;99.90;;;;;;5084117;28;20726;-86
2023/01/24 07:51:28;;;;;;;55.58;22.20;;;-0.10;99.90;;;;;;5091005;28;20054;-85
2023/01/24 07:53:54;;;;;;;49.15;21.60;;;-0.10;99.90;;;;;;5092029;28;20032;-86
2023/01/24 07:56:20;;;;;;;54.50;22.63;;;-0.10;99.90;;;;;;5091889;28;20024;-86
2023/01/24 07:58:46;;;;;;;53.58;22.75;;;-0.10;99.90;;;;;;5092542;28;20066;-86
2023/01/24 08:01:22;;;;;;;53.95;21.10;;;0.00;99.90;;;;;;5091786;28;20039;-86
2023/01/24 08:03:49;;;;;;;53.83;21.75;;;0.00;99.90;;;;;;5065799;28;20032;-85
2023/01/24 08:06:15;;;;;;;46.63;19.23;;;0.10;99.90;;;;;;5091575;28;20240;-86
2023/01/24 08:08:41;;;;;;;44.70;18.15;;;0.10;99.90;;;;;;5074998;28;20020;-85
2023/01/24 08:11:07;;;;;;;53.05;21.15;;;0.00;99.90;;;;;;5074613;28;20028;-86
2023/01/24 08:13:33;;;;;;;50.97;22.25;;;0.00;99.90;;;;;;5092193;28;20412;-85
2023/01/24 08:16:01;;;;;;;50.63;21.88;;;0.00;99.90;;;;;;5092050;28;20091;-86
2023/01/24 08:18:27;;;;;;;51.55;20.80;;;0.10;99.90;;;;;;5074457;28;20040;-85
2023/01/24 08:20:56;;;;;;;54.50;22.25;;;0.10;99.90;;;;;;5074671;28;20115;-85
2023/01/24 08:23:22;;;;;;;63.75;25.23;;;0.10;99.90;;;;;;5074258;28;20024;-86
2023/01/24 08:25:48;;;;;;;52.15;22.60;;;0.20;99.90;;;;;;5074550;28;20028;-85
2023/01/24 08:28:14;;;;;;;56.10;22.42;;;0.20;99.90;;;;;;5091504;28;20024;-86
2023/01/24 08:30:39;;;;;;;52.92;21.40;;;0.20;99.90;;;;;;5091335;28;20024;-86
2023/01/24 08:33:06;;;;;;;50.72;21.48;;;0.30;99.90;;;;;;5091976;28;20031;-86
2023/01/24 08:35:32;;;;;;;52.50;21.55;;;0.30;99.90;;;;;;5074136;28;20028;-85
2023/01/24 08:37:59;;;;;;;50.40;20.80;;;0.30;99.90;;;;;;5074597;28;20076;-86
2023/01/24 08:40:25;;;;;;;50.65;21.70;;;0.30;99.90;;;;;;5074467;28;20024;-85
2023/01/24 08:42:51;;;;;;;43.50;19.42;;;0.30;99.90;;;;;;5074607;28;20402;-86
2023/01/24 08:45:16;;;;;;;43.22;18.42;;;0.30;99.90;;;;;;5091638;28;20028;-86
2023/01/24 08:47:42;;;;;;;51.72;21.05;;;0.40;99.90;;;;;;5074858;28;20031;-86
2023/01/24 08:50:08;;;;;;;47.60;20.95;;;0.40;99.90;;;;;;5091337;28;20024;-86
2023/01/24 08:52:34;;;;;;;44.28;19.98;;;0.50;99.90;;;;;;5086145;28;20052;-86
2023/01/24 08:55:00;;;;;;;44.42;19.00;;;0.50;99.90;;;;;;5074154;28;20063;-86
2023/01/24 08:57:25;;;;;;;40.50;19.73;;;0.60;99.90;;;;;;5074453;28;20395;-86
2023/01/24 08:59:51;;;;;;;44.80;17.92;;;0.70;99.90;;;;;;5074446;28;20035;-86
2023/01/24 09:02:17;;;;;;;37.83;17.35;;;0.70;99.90;;;;;;5093457;28;20036;-86
2023/01/24 09:04:43;;;;;;;40.55;18.10;;;0.80;99.90;;;;;;5078817;28;20028;-86
2023/01/24 09:07:10;;;;;;;43.60;18.70;;;0.90;99.90;;;;;;5078435;28;20110;-86
2023/01/24 09:09:36;;;;;;;40.03;18.88;;;1.00;99.90;;;;;;5078285;28;20032;-86
2023/01/24 09:12:02;;;;;;;44.08;17.42;;;1.00;99.90;;;;;;5095036;28;20051;-86
2023/01/24 09:14:28;;;;;;;42.95;19.25;;;1.10;99.90;;;;;;5077444;28;20043;-85
2023/01/24 09:16:54;;;;;;;39.80;18.10;;;1.10;99.90;;;;;;5095087;28;20093;-86
2023/01/24 09:19:19;;;;;;;40.63;17.70;;;1.10;99.90;;;;;;5094588;28;20020;-86
2023/01/24 09:21:50;;;;;;;39.60;18.88;;;1.00;99.90;;;;;;5094584;28;20036;-85
2023/01/24 09:24:16;;;;;;;27.77;14.18;;;1.00;99.90;;;;;;5077173;28;20120;-86
2023/01/24 09:26:44;;;;;;;35.60;16.40;;;1.00;99.90;;;;;;5077384;28;20119;-86
2023/01/24 09:29:10;;;;;;;36.33;16.45;;;1.10;99.90;;;;;;5076742;28;20111;-85
2023/01/24 09:31:36;;;;;;;33.85;16.10;;;1.10;99.90;;;;;;5077166;28;20116;-85
2023/01/24 09:34:02;;;;;;;36.03;16.67;;;1.20;99.90;;;;;;5094549;28;20028;-86
2023/01/24 09:36:29;;;;;;;34.33;16.35;;;1.10;99.90;;;;;;5077976;28;20028;-86
2023/01/24 09:38:56;;;;;;;29.30;14.27;;;1.20;99.90;;;;;;5077801;28;20028;-85
2023/01/24 09:41:43;;;;;;;26.58;12.93;;;1.20;99.90;;;;;;5093675;28;20482;-85
2023/01/24 09:44:40;;;;;;;26.95;13.55;;;1.30;99.90;;;;;;5093828;28;20028;-85
2023/01/24 09:47:31;;;;;;;34.60;15.05;;;1.30;99.90;;;;;;5100369;28;20060;-86
2023/01/24 09:50:03;;;;;;;24.17;11.60;;;1.50;99.90;;;;;;5105034;28;20028;-86
2023/01/24 09:52:36;;;;;;;25.17;11.90;;;1.60;99.90;;;;;;5076981;28;20035;-86
2023/01/24 09:55:22;;;;;;;24.15;11.93;;;1.70;99.90;;;;;;5076639;28;20031;-85
2023/01/24 09:57:58;;;;;;;30.13;13.27;;;1.70;99.90;;;;;;5094167;28;20028;-86
2023/01/24 10:00:29;;;;;;;24.63;11.80;;;1.60;99.90;;;;;;5093360;28;20039;-85
2023/01/24 10:02:56;;;;;;;19.98;11.65;;;1.50;99.90;;;;;;5077089;28;20036;-85
2023/01/24 10:05:36;;;;;;;25.00;13.35;;;1.50;99.90;;;;;;5094072;28;20521;-86
2023/01/24 10:08:11;;;;;;;23.45;11.90;;;1.40;99.90;;;;;;5077306;28;20038;-86
2023/01/24 10:11:12;;;;;;;22.83;12.77;;;1.60;99.90;;;;;;5076921;28;20371;-86
2023/01/24 10:13:50;;;;;;;27.00;12.48;;;1.60;99.90;;;;;;5092064;28;20080;-86
2023/01/24 10:16:39;;;;;;;29.52;14.13;;;1.90;99.90;;;;;;5075856;28;20479;-86
2023/01/24 10:19:29;;;;;;;26.08;12.43;;;1.90;99.90;;;;;;5030356;28;20042;-85
2023/01/24 10:22:20;;;;;;;26.55;11.43;;;2.10;99.90;;;;;;5076932;28;20036;-86
2023/01/24 10:24:56;;;;;;;25.35;10.85;;;2.10;99.90;;;;;;5066175;28;20070;-86
2023/01/24 10:27:34;;;;;;;27.30;11.90;;;2.10;99.90;;;;;;5093055;28;20028;-86
2023/01/24 10:30:11;;;;;;;23.42;11.20;;;2.20;99.90;;;;;;5076715;28;20047;-86
2023/01/24 10:32:43;;;;;;;20.52;10.93;;;2.20;99.90;;;;;;5076574;28;20110;-85
2023/01/24 10:35:17;;;;;;;26.13;13.30;;;2.20;99.90;;;;;;5093806;28;20460;-86
2023/01/24 10:37:45;;;;;;;29.85;12.75;;;2.10;99.90;;;;;;5085575;28;20606;-86
2023/01/24 10:40:15;;;;;;;27.95;13.32;;;1.90;99.90;;;;;;5093858;28;20020;-86
2023/01/24 10:42:41;;;;;;;29.30;12.90;;;2.00;99.90;;;;;;5068581;28;20028;-86
2023/01/24 10:45:29;;;;;;;26.85;12.38;;;2.10;99.90;;;;;;5076277;28;20058;-86
2023/01/24 10:48:06;;;;;;;24.30;12.63;;;2.00;99.90;;;;;;5076647;28;20024;-86
2023/01/24 10:50:35;;;;;;;30.77;13.68;;;1.90;99.90;;;;;;5076517;28;20020;-86
2023/01/24 10:53:25;;;;;;;31.63;13.00;;;2.00;99.90;;;;;;5076771;28;20062;-86
2023/01/24 10:56:01;;;;;;;32.03;15.05;;;2.10;99.90;;;;;;5069935;28;20031;-85
2023/01/24 10:58:42;;;;;;;28.77;13.10;;;2.10;99.90;;;;;;5075967;28;20059;-85
2023/01/24 11:01:20;;;;;;;28.92;14.05;;;1.90;99.90;;;;;;5076159;28;20032;-86
2023/01/24 11:03:48;;;;;;;26.27;12.80;;;1.90;99.90;;;;;;5064884;28;20038;-86
2023/01/24 11:06:33;;;;;;;30.25;14.40;;;1.90;99.90;;;;;;5092413;28;20028;-86
2023/01/24 11:09:20;;;;;;;35.58;15.48;;;2.10;99.90;;;;;;5093090;28;20031;-86
2023/01/24 11:11:57;;;;;;;27.33;13.10;;;2.20;99.90;;;;;;5093336;28;20062;-85
2023/01/24 11:14:26;;;;;;;30.02;14.10;;;2.10;99.90;;;;;;5092433;28;20028;-86
2023/01/24 11:16:57;;;;;;;30.77;14.52;;;2.20;99.90;;;;;;5075574;28;20028;-86
2023/01/24 11:19:30;;;;;;;29.73;14.27;;;2.40;99.90;;;;;;5075705;28;20028;-86
2023/01/24 11:21:58;;;;;;;24.30;12.10;;;2.50;99.90;;;;;;5093664;28;20028;-86
2023/01/24 11:24:28;;;;;;;24.20;12.88;;;2.50;99.90;;;;;;5091526;28;20694;-86
2023/01/24 11:27:16;;;;;;;27.70;12.90;;;2.50;99.90;;;;;;5075637;28;20031;-86
2023/01/24 11:29:42;;;;;;;26.52;14.68;;;2.40;99.90;;;;;;5074981;28;20490;-86
2023/01/24 11:32:33;;;;;;;31.38;15.02;;;2.40;99.90;;;;;;5093596;28;20038;-86
2023/01/24 11:35:20;;;;;;;27.83;13.52;;;2.50;99.90;;;;;;5092267;28;20032;-86
2023/01/24 11:38:21;;;;;;;29.88;14.85;;;2.50;99.90;;;;;;5075427;28;20088;-86
2023/01/24 11:41:03;;;;;;;34.58;14.88;;;2.30;99.90;;;;;;5075051;28;20865;-86
2023/01/24 11:43:50;;;;;;;34.65;16.25;;;2.20;99.90;;;;;;5075132;28;20044;-86
2023/01/24 11:46:42;;;;;;;30.35;14.57;;;2.30;99.90;;;;;;5075079;28;20028;-85
2023/01/24 11:49:38;;;;;;;33.35;15.85;;;2.20;99.90;;;;;;5066828;28;20051;-86
2023/01/24 11:52:13;;;;;;;29.90;15.02;;;2.30;99.90;;;;;;5075127;28;20039;-86
2023/01/24 11:55:03;;;;;;;30.50;15.45;;;2.20;99.90;;;;;;5091015;28;20031;-86
2023/01/24 11:57:55;;;;;;;32.20;15.70;;;2.00;99.90;;;;;;5072768;28;20085;-86
2023/01/24 12:00:27;;;;;;;34.47;15.30;;;2.10;99.90;;;;;;5092538;28;20032;-86
2023/01/24 12:03:02;;;;;;;28.92;14.07;;;1.90;99.90;;;;;;5074927;28;20135;-86
2023/01/24 12:05:46;;;;;;;30.58;14.77;;;1.70;99.90;;;;;;5091377;28;20572;-86
2023/01/24 12:08:17;;;;;;;33.83;16.40;;;1.60;99.90;;;;;;5092100;28;20380;-86
2023/01/24 12:10:50;;;;;;;;;;;1.60;99.90;;;;;;5093948;28;20099;-86
2023/01/24 12:13:38;;;;;;;33.33;14.95;;;1.80;99.90;;;;;;5075211;28;19908;-86
2023/01/24 12:16:08;;;;;;;35.67;15.38;;;1.80;99.90;;;;;;5074760;28;20387;-86
2023/01/24 12:18:49;;;;;;;37.60;16.42;;;1.80;99.90;;;;;;5091248;28;20093;-86
2023/01/24 12:21:14;;;;;;;33.10;15.15;;;1.90;99.90;;;;;;5074531;28;20119;-86
2023/01/24 12:24:05;;;;;;;35.88;16.27;;;2.00;99.90;;;;;;5074604;28;20055;-86
2023/01/24 12:26:57;;;;;;;32.65;15.18;;;2.00;99.90;;;;;;5072496;28;20120;-86
2023/01/24 12:30:08;;;;;;;38.03;15.50;;;1.90;99.90;;;;;;5091157;28;20064;-86
2023/01/24 12:33:08;;;;;;;34.07;16.87;;;1.90;99.90;;;;;;5053376;28;20475;-86
2023/01/24 12:35:45;;;;;;;34.45;14.90;;;1.90;99.90;;;;;;5068237;28;20375;-86
2023/01/24 12:38:20;;;;;;;32.90;15.32;;;1.70;99.90;;;;;;5091260;28;20032;-86
2023/01/24 12:40:49;;;;;;;37.67;15.10;;;1.60;99.90;;;;;;5074411;28;20077;-86
2023/01/24 12:43:33;;;;;;;36.33;17.30;;;1.60;99.90;;;;;;5090886;28;20872;-86
2023/01/24 12:46:22;;;;;;;33.88;15.45;;;1.70;99.90;;;;;;5084190;28;20047;-86
2023/01/24 12:48:52;;;;;;;33.13;14.45;;;1.70;99.90;;;;;;5074559;28;20020;-86
2023/01/24 12:51:42;;;;;;;39.92;16.35;;;1.70;99.90;;;;;;5074462;28;20028;-86
2023/01/24 12:54:25;;;;;;;35.78;15.38;;;1.80;99.90;;;;;;5087156;28;20098;-86
2023/01/24 12:57:39;;;;;;;35.17;16.52;;;1.80;99.90;;;;;;5075038;28;20066;-86
2023/01/24 13:00:56;;;;;;;38.42;15.82;;;1.70;99.90;;;;;;5066084;28;20097;-86
2023/01/24 13:03:41;;;;;;;33.00;15.15;;;1.60;99.90;;;;;;5073931;28;20048;-86
2023/01/24 13:06:28;;;;;;;39.78;15.98;;;1.60;99.90;;;;;;5074397;28;20035;-86
2023/01/24 13:09:06;;;;;;;29.25;13.90;;;1.60;99.90;;;;;;5084642;28;20520;-86
2023/01/24 13:11:44;;;;;;;38.50;15.07;;;1.40;99.90;;;;;;5073543;28;20032;-86
2023/01/24 13:14:23;;;;;;;33.13;14.27;;;1.20;99.90;;;;;;5090677;28;20753;-86
2023/01/24 13:17:12;;;;;;;29.65;13.60;;;1.20;99.90;;;;;;5073768;28;20679;-86
2023/01/24 13:19:46;;;;;;;34.00;15.00;;;1.20;99.90;;;;;;5073925;28;20502;-86
2023/01/24 13:22:21;;;;;;;38.97;15.57;;;1.20;99.90;;;;;;5073759;28;20080;-86
2023/01/24 13:24:55;;;;;;;32.33;15.02;;;1.30;99.90;;;;;;5073485;28;20107;-86
2023/01/24 13:27:48;;;;;;;36.13;15.07;;;1.30;99.90;;;;;;5090861;28;20024;-86
2023/01/24 13:30:37;;;;;;;33.08;15.20;;;1.20;99.90;;;;;;5064334;28;20032;-86
2023/01/24 13:33:04;;;;;;;31.20;14.88;;;1.30;99.90;;;;;;5101183;28;20032;-86
2023/01/24 13:35:31;;;;;;;33.90;15.88;;;1.20;99.90;;;;;;5073771;28;20028;-86